createdAt,value
2022-08-10T00:01:55.511Z,20.87
2022-08-10T00:04:25.325Z,20.80
2022-08-10T00:06:55.523Z,20.86
2022-08-10T00:09:27.689Z,20.55
2022-08-10T00:11:56.399Z,20.82
2022-08-10T00:14:25.355Z,20.84
2022-08-10T00:16:55.867Z,20.79
2022-08-10T00:19:24.733Z,20.77
2022-08-10T00:21:53.581Z,20.63
2022-08-10T00:24:22.372Z,20.61
2022-08-10T00:27:52.857Z,20.51
2022-08-10T00:29:40.259Z,20.68
2022-08-10T00:32:10.559Z,20.75
2022-08-10T00:34:39.603Z,20.90
2022-08-10T00:37:08.859Z,20.88
2022-08-10T00:39:39.526Z,20.73
2022-08-10T00:42:09.869Z,20.61
2022-08-10T00:44:40.158Z,20.50
2022-08-10T00:47:22.738Z,20.50
2022-08-10T00:50:00.469Z,20.51
2022-08-10T00:52:32.120Z,20.69
2022-08-10T00:55:03.070Z,20.51
2022-08-10T00:57:32.092Z,20.72
2022-08-10T01:00:01.310Z,20.59
2022-08-10T01:02:35.004Z,20.47
2022-08-10T01:05:06.686Z,20.66
2022-08-10T01:07:49.466Z,20.56
2022-08-10T01:10:29.578Z,20.66
2022-08-10T01:13:05.587Z,20.66
2022-08-10T01:15:41.484Z,20.60
2022-08-10T01:18:19.505Z,20.56
2022-08-10T01:21:05.799Z,20.53
2022-08-10T01:24:06.933Z,20.68
2022-08-10T01:26:43.648Z,20.07
2022-08-10T01:29:48.495Z,20.43
2022-08-10T01:32:25.683Z,20.49
2022-08-10T01:34:59.490Z,20.38
2022-08-10T01:37:33.804Z,20.52
2022-08-10T01:40:06.585Z,20.45
2022-08-10T01:42:38.249Z,20.40
2022-08-10T01:45:11.637Z,20.42
2022-08-10T01:48:00.033Z,20.55
2022-08-10T01:50:33.578Z,20.53
2022-08-10T01:53:07.534Z,20.48
2022-08-10T01:55:38.127Z,20.45
2022-08-10T01:58:08.764Z,20.44
2022-08-10T02:00:43.372Z,20.48
2022-08-10T02:03:13.926Z,20.30
2022-08-10T02:05:46.356Z,20.21
2022-08-10T02:08:18.924Z,20.03
2022-08-10T02:10:50.064Z,19.69
2022-08-10T02:13:20.414Z,19.81
2022-08-10T02:16:01.599Z,19.60
2022-08-10T02:18:35.187Z,19.68
2022-08-10T02:21:06.387Z,19.55
2022-08-10T02:23:39.818Z,19.47
2022-08-10T02:26:14.182Z,19.45
2022-08-10T02:28:43.863Z,19.32
2022-08-10T02:31:18.082Z,19.56
2022-08-10T02:33:57.195Z,19.27
2022-08-10T02:36:29.159Z,19.19
2022-08-10T02:39:01.375Z,19.37
2022-08-10T02:45:13.076Z,19.32
2022-08-10T02:45:19.859Z,19.19
2022-08-10T02:47:27.306Z,18.86
2022-08-10T02:50:04.314Z,18.70
2022-08-10T02:52:39.886Z,18.88
2022-08-10T02:55:17.921Z,18.90
2022-08-10T02:58:17.367Z,18.71
2022-08-10T03:00:52.370Z,18.68
2022-08-10T03:03:26.001Z,18.61
2022-08-10T03:05:58.508Z,18.73
2022-08-10T03:08:32.211Z,18.78
2022-08-10T03:11:04.104Z,18.81
2022-08-10T03:13:34.937Z,18.87
2022-08-10T03:16:06.178Z,18.88
2022-08-10T03:18:37.430Z,18.62
2022-08-10T03:21:11.693Z,18.32
2022-08-10T03:23:46.857Z,18.93
2022-08-10T03:26:20.436Z,18.84
2022-08-10T03:28:50.020Z,18.95
2022-08-10T03:31:19.508Z,19.00
2022-08-10T03:33:50.177Z,18.86
2022-08-10T03:36:40.745Z,18.94
2022-08-10T03:39:08.258Z,18.87
2022-08-10T03:41:41.497Z,18.90
2022-08-10T03:44:22.116Z,18.63
2022-08-10T03:46:52.238Z,18.68
2022-08-10T03:49:24.542Z,18.58
2022-08-10T03:51:53.463Z,18.85
2022-08-10T03:54:23.114Z,18.81
2022-08-10T03:56:55.123Z,18.99
2022-08-10T03:59:24.456Z,19.08
2022-08-10T04:02:44.577Z,18.46
2022-08-10T04:04:44.679Z,19.26
2022-08-10T04:07:13.819Z,19.17
2022-08-10T04:09:55.669Z,18.84
2022-08-10T04:12:25.547Z,19.00
2022-08-10T04:14:56.897Z,19.13
2022-08-10T04:18:01.415Z,19.29
2022-08-10T04:20:20.937Z,19.55
2022-08-10T04:22:53.978Z,19.64
2022-08-10T04:25:27.290Z,19.72
2022-08-10T04:27:56.410Z,19.95
2022-08-10T04:30:27.803Z,19.77
2022-08-10T04:33:00.079Z,19.64
2022-08-10T04:35:31.590Z,19.79
2022-08-10T04:38:03.458Z,19.85
2022-08-10T04:40:32.897Z,20.00
2022-08-10T04:43:11.347Z,20.24
2022-08-10T04:45:48.971Z,20.40
2022-08-10T04:48:40.314Z,20.79
2022-08-10T04:51:18.725Z,21.09
2022-08-10T04:54:05.025Z,20.78
2022-08-10T04:56:36.951Z,21.15
2022-08-10T04:59:06.434Z,21.36
2022-08-10T05:02:27.980Z,21.34
2022-08-10T05:04:35.404Z,21.06
2022-08-10T05:07:10.646Z,20.87
2022-08-10T05:10:02.781Z,21.34
2022-08-10T05:12:29.644Z,21.20
2022-08-10T05:14:58.688Z,21.18
2022-08-10T05:17:28.300Z,21.50
2022-08-10T05:20:03.757Z,21.42
2022-08-10T05:22:39.375Z,21.09
2022-08-10T05:25:11.958Z,21.65
2022-08-10T05:27:41.424Z,21.86
2022-08-10T05:30:13.605Z,21.38
2022-08-10T05:32:57.414Z,21.55
2022-08-10T05:35:55.053Z,21.77
2022-08-10T05:38:22.253Z,21.23
2022-08-10T05:40:52.023Z,21.06
2022-08-10T05:43:24.344Z,20.95
2022-08-10T05:46:18.018Z,21.20
2022-08-10T05:48:58.659Z,21.46
2022-08-10T05:51:31.902Z,20.39
2022-08-10T05:54:06.504Z,20.48
2022-08-10T05:56:56.940Z,20.95
2022-08-10T06:00:12.704Z,21.68
2022-08-10T06:02:34.099Z,21.10
2022-08-10T06:05:08.589Z,20.95
2022-08-10T06:07:41.736Z,20.80
2022-08-10T06:10:31.096Z,21.25
2022-08-10T06:13:26.734Z,21.62
2022-08-10T06:16:01.739Z,21.76
2022-08-10T06:18:31.344Z,21.59
2022-08-10T06:21:01.134Z,21.38
2022-08-10T06:23:30.992Z,21.46
2022-08-10T06:26:11.504Z,21.45
2022-08-10T06:28:54.029Z,20.99
2022-08-10T06:31:48.320Z,21.47
2022-08-10T06:34:27.168Z,20.92
2022-08-10T06:36:58.786Z,20.68
2022-08-10T06:39:36.683Z,21.01
2022-08-10T06:42:16.402Z,21.41
2022-08-10T06:44:54.991Z,20.73
2022-08-10T06:47:27.810Z,21.19
2022-08-10T06:50:01.484Z,20.97
2022-08-10T06:52:34.067Z,21.53
2022-08-10T06:55:05.163Z,20.44
2022-08-10T06:57:38.360Z,20.70
2022-08-10T07:00:08.956Z,20.97
2022-08-10T07:02:45.447Z,21.58
2022-08-10T07:05:20.119Z,21.71
2022-08-10T07:07:55.639Z,21.88
2022-08-10T07:10:45.549Z,21.67
2022-08-10T07:14:15.428Z,21.80
2022-08-10T07:16:12.967Z,21.57
2022-08-10T07:18:45.198Z,21.65
2022-08-10T07:21:15.256Z,21.31
2022-08-10T07:23:58.091Z,22.83
2022-08-10T07:26:29.069Z,21.99
2022-08-10T07:29:01.144Z,22.10
2022-08-10T07:31:56.885Z,23.01
2022-08-10T07:34:29.543Z,22.93
2022-08-10T07:37:03.153Z,23.62
2022-08-10T07:40:02.936Z,23.45
2022-08-10T07:42:26.725Z,23.48
2022-08-10T07:44:57.158Z,23.16
2022-08-10T07:47:54.038Z,23.53
2022-08-10T07:50:24.612Z,24.04
2022-08-10T07:52:59.816Z,23.58
2022-08-10T07:56:03.662Z,23.52
2022-08-10T07:58:20.680Z,23.24
2022-08-10T08:00:53.385Z,23.06
2022-08-10T08:03:25.398Z,22.63
2022-08-10T08:05:58.463Z,22.92
2022-08-10T08:08:34.716Z,23.14
2022-08-10T08:11:04.430Z,23.32
2022-08-10T08:13:35.194Z,23.91
2022-08-10T08:16:18.744Z,22.91
2022-08-10T08:19:16.307Z,22.54
2022-08-10T08:24:05.629Z,23.10
2022-08-10T08:24:36.488Z,23.87
2022-08-10T08:27:09.098Z,24.28
2022-08-10T08:29:42.391Z,24.54
2022-08-10T08:32:13.849Z,24.42
2022-08-10T08:34:45.314Z,24.90
2022-08-10T08:38:28.773Z,25.52
2022-08-10T08:40:11.823Z,25.40
2022-08-10T08:43:06.352Z,25.92
2022-08-10T08:46:00.662Z,26.15
2022-08-10T08:48:49.457Z,25.77
2022-08-10T08:52:09.400Z,25.71
2022-08-10T08:54:34.599Z,25.54
2022-08-10T08:57:09.208Z,25.71
2022-08-10T08:59:56.073Z,25.72
2022-08-10T09:02:40.113Z,25.83
2022-08-10T09:05:24.605Z,25.48
2022-08-10T09:08:11.957Z,24.42
2022-08-10T09:10:51.728Z,24.16
2022-08-10T09:13:29.560Z,25.42
2022-08-10T09:16:21.332Z,26.23
2022-08-10T09:18:54.594Z,26.79
2022-08-10T09:21:32.127Z,26.19
2022-08-10T09:24:06.846Z,26.24
2022-08-10T09:26:46.877Z,25.70
2022-08-10T09:29:20.871Z,26.31
2022-08-10T09:36:19.740Z,26.10
2022-08-10T09:36:26.175Z,25.81
2022-08-10T09:38:04.263Z,25.31
2022-08-10T09:41:00.577Z,26.02
2022-08-10T09:43:43.195Z,25.33
2022-08-10T09:46:22.660Z,24.36
2022-08-10T09:49:04.858Z,24.83
2022-08-10T09:51:46.418Z,24.53
2022-08-10T09:54:40.985Z,24.09
2022-08-10T09:57:44.643Z,24.62
2022-08-10T10:00:12.730Z,24.57
2022-08-10T10:02:52.706Z,25.29
2022-08-10T10:05:33.964Z,25.15
2022-08-10T10:08:10.666Z,26.34
2022-08-10T10:10:53.020Z,26.33
2022-08-10T10:13:41.510Z,26.32
2022-08-10T10:16:45.127Z,25.53
2022-08-10T10:19:28.918Z,25.76
2022-08-10T10:22:12.404Z,25.74
2022-08-10T10:24:48.989Z,26.41
2022-08-10T10:27:28.517Z,27.16
2022-08-10T10:30:06.006Z,25.99
2022-08-10T10:32:50.373Z,26.86
2022-08-10T10:35:30.728Z,27.70
2022-08-10T10:38:03.616Z,27.22
2022-08-10T10:40:39.090Z,26.10
2022-08-10T10:43:26.907Z,25.12
2022-08-10T10:46:06.080Z,26.35
2022-08-10T10:48:42.140Z,26.77
2022-08-10T10:51:17.537Z,26.83
2022-08-10T10:53:58.458Z,26.89
2022-08-10T10:56:32.477Z,26.56
2022-08-10T10:59:53.995Z,25.77
2022-08-10T11:02:20.348Z,25.52
2022-08-10T11:04:59.291Z,25.47
2022-08-10T11:07:35.783Z,25.28
2022-08-10T11:10:32.001Z,25.25
2022-08-10T11:14:26.222Z,25.37
2022-08-10T11:16:12.475Z,26.07
2022-08-10T11:18:53.149Z,26.24
2022-08-10T11:21:32.695Z,25.95
2022-08-10T11:24:44.471Z,26.14
2022-08-10T11:27:02.194Z,26.06
2022-08-10T11:29:36.210Z,26.15
2022-08-10T11:32:21.278Z,26.35
2022-08-10T11:35:11.688Z,26.28
2022-08-10T11:38:30.079Z,25.43
2022-08-10T11:40:45.810Z,26.80
2022-08-10T11:43:22.124Z,26.29
2022-08-10T11:45:56.158Z,26.64
2022-08-10T11:48:54.227Z,26.81
2022-08-10T11:51:31.976Z,27.15
2022-08-10T11:54:06.502Z,26.79
2022-08-10T11:56:45.792Z,26.51
2022-08-10T11:59:34.134Z,26.28
2022-08-10T12:02:05.651Z,26.06
2022-08-10T12:04:37.792Z,26.15
2022-08-10T12:10:02.210Z,25.32
2022-08-10T12:10:10.084Z,25.80
2022-08-10T12:12:48.196Z,25.82
2022-08-10T12:15:22.867Z,25.48
2022-08-10T12:17:55.964Z,25.79
2022-08-10T12:20:31.133Z,25.65
2022-08-10T12:23:09.035Z,25.51
2022-08-10T12:25:55.995Z,25.72
2022-08-10T12:28:50.187Z,25.86
2022-08-10T12:31:26.488Z,25.87
2022-08-10T12:34:06.804Z,26.02
2022-08-10T12:36:43.140Z,25.49
2022-08-10T12:39:19.812Z,25.17
2022-08-10T12:41:58.148Z,25.50
2022-08-10T12:44:41.180Z,25.94
2022-08-10T12:47:21.434Z,26.18
2022-08-10T12:50:29.300Z,26.23
2022-08-10T12:52:59.015Z,25.66
2022-08-10T12:55:35.275Z,25.80
2022-08-10T12:58:59.957Z,25.41
2022-08-10T13:01:15.567Z,24.94
2022-08-10T13:04:20.390Z,25.19
2022-08-10T13:06:43.578Z,25.19
2022-08-10T13:09:16.178Z,25.59
2022-08-10T13:12:36.062Z,25.69
2022-08-10T13:14:55.001Z,25.54
2022-08-10T13:17:32.462Z,25.60
2022-08-10T13:20:17.151Z,25.38
2022-08-10T13:22:48.499Z,25.30
2022-08-10T13:25:25.252Z,25.55
2022-08-10T13:28:01.112Z,25.60
2022-08-10T13:30:51.134Z,25.71
2022-08-10T13:34:38.814Z,25.63
2022-08-10T13:36:17.365Z,25.68
2022-08-10T13:38:51.474Z,25.47
2022-08-10T13:41:22.122Z,25.38
2022-08-10T13:43:53.561Z,25.17
2022-08-10T13:46:23.917Z,25.62
2022-08-10T13:48:54.331Z,25.40
2022-08-10T13:51:56.705Z,25.57
2022-08-10T13:54:16.980Z,25.11
2022-08-10T13:56:51.065Z,25.49
2022-08-10T13:59:21.441Z,24.90
2022-08-10T14:01:52.009Z,25.21
2022-08-10T14:04:21.078Z,25.05
2022-08-10T14:06:55.561Z,25.10
2022-08-10T14:09:32.795Z,25.10
2022-08-10T14:12:03.479Z,24.94
2022-08-10T14:14:33.399Z,24.76
2022-08-10T14:17:04.576Z,24.84
2022-08-10T14:19:39.455Z,25.01
2022-08-10T14:22:19.555Z,24.99
2022-08-10T14:25:07.528Z,25.15
2022-08-10T14:28:01.600Z,25.34
2022-08-10T14:30:31.368Z,25.11
2022-08-10T14:33:04.534Z,25.26
2022-08-10T14:36:17.348Z,25.12
2022-08-10T14:38:33.158Z,25.22
2022-08-10T14:41:04.972Z,25.61
2022-08-10T14:43:40.730Z,25.54
2022-08-10T14:46:12.623Z,25.76
2022-08-10T14:48:49.292Z,25.34
2022-08-10T14:51:26.801Z,25.19
2022-08-10T14:54:16.007Z,25.20
2022-08-10T14:56:49.080Z,25.03
2022-08-10T14:59:21.227Z,25.18
2022-08-10T15:02:38.651Z,25.11
2022-08-10T15:04:53.757Z,25.33
2022-08-10T15:07:30.039Z,25.37
2022-08-10T15:10:03.779Z,25.30
2022-08-10T15:12:36.417Z,25.20
2022-08-10T15:15:10.728Z,25.08
2022-08-10T15:17:43.190Z,24.98
2022-08-10T15:20:21.244Z,24.93
2022-08-10T15:22:53.887Z,24.81
2022-08-10T15:25:27.157Z,24.82
2022-08-10T15:28:05.469Z,24.45
2022-08-10T15:30:43.895Z,24.43
2022-08-10T15:34:02.103Z,24.36
2022-08-10T15:36:41.989Z,24.57
2022-08-10T15:40:24.333Z,24.70
2022-08-10T15:42:10.500Z,24.48
2022-08-10T15:44:42.008Z,24.31
2022-08-10T15:47:24.227Z,24.45
2022-08-10T15:49:57.145Z,24.27
2022-08-10T15:52:39.103Z,24.22
2022-08-10T15:55:42.996Z,24.35
2022-08-10T15:58:37.557Z,24.38
2022-08-10T16:02:15.062Z,24.41
2022-08-10T16:04:09.174Z,24.24
2022-08-10T16:06:43.110Z,24.25
2022-08-10T16:10:22.901Z,24.06
2022-08-10T16:12:15.862Z,24.02
2022-08-10T16:14:48.947Z,24.04
2022-08-10T16:17:17.671Z,24.03
2022-08-10T16:19:51.085Z,23.91
2022-08-10T16:22:35.313Z,23.94
2022-08-10T16:25:15.188Z,23.88
2022-08-10T16:27:46.085Z,23.84
2022-08-10T16:30:16.195Z,23.77
2022-08-10T16:32:47.475Z,23.62
2022-08-10T16:35:21.314Z,23.70
2022-08-10T16:37:57.166Z,23.62
2022-08-10T16:40:30.396Z,23.65
2022-08-10T16:43:02.250Z,23.58
2022-08-10T16:45:35.149Z,23.57
2022-08-10T16:48:05.774Z,23.54
2022-08-10T16:50:41.880Z,23.57
2022-08-10T16:53:15.659Z,23.18
2022-08-10T16:55:50.475Z,23.54
2022-08-10T16:58:25.091Z,23.52
2022-08-10T17:01:02.658Z,23.60
2022-08-10T17:04:06.253Z,23.57
2022-08-10T17:06:32.441Z,23.54
2022-08-10T17:09:04.591Z,23.42
2022-08-10T17:11:37.104Z,23.51
2022-08-10T17:14:09.895Z,23.49
2022-08-10T17:16:41.838Z,23.44
2022-08-10T17:19:14.182Z,23.46
2022-08-10T17:21:52.062Z,23.44
2022-08-10T17:24:25.619Z,23.41
2022-08-10T17:26:57.230Z,23.36
2022-08-10T17:29:58.002Z,23.33
2022-08-10T17:32:31.429Z,23.11
2022-08-10T17:35:02.512Z,22.79
2022-08-10T17:37:45.125Z,23.02
2022-08-10T17:40:18.360Z,23.09
2022-08-10T17:42:47.709Z,23.04
2022-08-10T17:45:48.341Z,22.99
2022-08-10T17:48:10.746Z,22.93
2022-08-10T17:50:42.255Z,22.89
2022-08-10T17:53:17.445Z,22.78
2022-08-10T17:55:49.244Z,22.65
2022-08-10T17:58:21.108Z,22.71
2022-08-10T18:00:56.502Z,22.75
2022-08-10T18:03:41.357Z,22.63
2022-08-10T18:06:15.943Z,22.82
2022-08-10T18:08:53.273Z,22.59
2022-08-10T18:11:27.715Z,22.74
2022-08-10T18:14:02.338Z,22.61
2022-08-10T18:16:35.965Z,22.65
2022-08-10T18:19:13.678Z,22.51
2022-08-10T18:21:48.542Z,22.56
2022-08-10T18:24:23.078Z,22.49
2022-08-10T18:26:53.916Z,21.99
2022-08-10T18:29:27.611Z,22.32
2022-08-10T18:31:59.852Z,22.45
2022-08-10T18:34:31.549Z,22.18
2022-08-10T18:37:05.292Z,22.43
2022-08-10T18:39:40.106Z,22.46
2022-08-10T18:42:14.790Z,22.40
2022-08-10T18:44:50.562Z,22.16
2022-08-10T18:47:28.872Z,22.32
2022-08-10T18:50:02.616Z,22.34
2022-08-10T18:52:35.115Z,22.35
2022-08-10T18:55:14.121Z,22.31
2022-08-10T18:58:02.545Z,22.29
2022-08-10T19:00:37.741Z,22.26
2022-08-10T19:03:33.261Z,22.26
2022-08-10T19:06:21.098Z,22.14
2022-08-10T19:09:45.453Z,21.97
2022-08-10T19:12:30.686Z,22.12
2022-08-10T19:15:18.089Z,21.97
2022-08-10T19:18:02.849Z,21.98
2022-08-10T19:20:43.096Z,22.08
2022-08-10T19:23:23.546Z,21.90
2022-08-10T19:26:41.264Z,22.08
2022-08-10T19:29:00.548Z,22.03
2022-08-10T19:31:45.974Z,21.96
2022-08-10T19:34:30.467Z,22.00
2022-08-10T19:37:10.353Z,21.83
2022-08-10T19:40:00.085Z,21.68
2022-08-10T19:42:36.891Z,21.87
2022-08-10T19:46:01.107Z,21.58
2022-08-10T19:48:20.831Z,21.82
2022-08-10T19:50:57.580Z,21.92
2022-08-10T19:53:43.313Z,21.97
2022-08-10T19:56:33.474Z,21.90
2022-08-10T19:59:10.561Z,21.58
2022-08-10T20:01:55.929Z,21.92
2022-08-10T20:04:32.135Z,21.84
2022-08-10T20:07:11.822Z,21.83
2022-08-10T20:09:48.916Z,21.88
2022-08-10T20:12:33.106Z,21.71
2022-08-10T20:15:09.070Z,21.86
2022-08-10T20:17:52.420Z,21.71
2022-08-10T20:20:30.621Z,21.83
2022-08-10T20:23:17.160Z,21.81
2022-08-10T20:25:56.700Z,21.85
2022-08-10T20:28:39.493Z,21.96
2022-08-10T20:31:17.385Z,21.98
2022-08-10T20:34:00.973Z,21.94
2022-08-10T20:36:34.893Z,21.86
2022-08-10T20:39:14.659Z,21.92
2022-08-10T20:41:58.180Z,21.84
2022-08-10T20:44:38.155Z,21.90
2022-08-10T20:47:13.314Z,21.72
2022-08-10T20:49:54.229Z,21.38
2022-08-10T20:52:26.794Z,21.43
2022-08-10T20:55:01.689Z,21.21
2022-08-10T20:57:54.210Z,21.36
2022-08-10T21:00:38.881Z,21.12
2022-08-10T21:03:33.327Z,21.00
2022-08-10T21:06:42.145Z,21.12
2022-08-10T21:09:31.872Z,21.25
2022-08-10T21:12:22.535Z,21.41
2022-08-10T21:15:19.575Z,21.36
2022-08-10T21:18:01.976Z,21.47
2022-08-10T21:20:59.946Z,21.44
2022-08-10T21:23:46.668Z,21.08
2022-08-10T21:26:19.608Z,21.19
2022-08-10T21:29:39.710Z,21.33
2022-08-10T21:32:19.851Z,21.22
2022-08-10T21:35:01.187Z,21.22
2022-08-10T21:37:56.759Z,21.17
2022-08-10T21:41:17.013Z,21.01
2022-08-10T21:44:09.053Z,20.69
2022-08-10T21:47:07.584Z,21.09
2022-08-10T21:50:07.604Z,21.18
2022-08-10T21:53:04.101Z,21.16
2022-08-10T21:56:02.203Z,21.02
2022-08-10T21:58:55.916Z,21.06
2022-08-10T22:01:53.245Z,21.01
2022-08-10T22:04:40.295Z,20.83
2022-08-10T22:07:37.942Z,20.96
2022-08-10T22:10:27.529Z,20.97
2022-08-10T22:13:20.125Z,21.07
2022-08-10T22:16:13.120Z,20.96
2022-08-10T22:19:03.688Z,20.72
2022-08-10T22:22:04.483Z,20.80
2022-08-10T22:25:16.661Z,20.78
2022-08-10T22:28:17.462Z,20.06
2022-08-10T22:31:29.638Z,20.61
2022-08-10T22:34:33.707Z,20.71
2022-08-10T22:37:36.449Z,20.80
2022-08-10T22:40:28.925Z,20.70
2022-08-10T22:43:33.547Z,20.63
2022-08-10T22:46:25.513Z,20.43
2022-08-10T22:49:02.570Z,20.46
2022-08-10T22:51:57.891Z,20.54
2022-08-10T22:54:51.576Z,20.42
2022-08-10T22:57:38.790Z,20.32
2022-08-10T23:00:15.259Z,20.30
2022-08-10T23:02:53.417Z,20.81
2022-08-10T23:05:29.942Z,20.77
2022-08-10T23:08:09.410Z,20.69
2022-08-10T23:10:43.553Z,20.78
2022-08-10T23:13:26.413Z,20.87
2022-08-10T23:16:28.678Z,20.90
2022-08-10T23:19:11.465Z,20.77
2022-08-10T23:22:03.457Z,20.79
2022-08-10T23:24:39.784Z,20.89
2022-08-10T23:27:38.880Z,20.87
2022-08-10T23:30:10.215Z,20.76
2022-08-10T23:32:43.549Z,20.64
2022-08-10T23:36:31.498Z,20.72
2022-08-10T23:38:06.193Z,20.77
2022-08-10T23:40:37.074Z,20.79
2022-08-10T23:43:07.014Z,20.47
2022-08-10T23:45:53.474Z,20.43
2022-08-10T23:48:27.436Z,20.56
2022-08-10T23:51:00.057Z,20.72
2022-08-10T23:53:33.047Z,20.68
2022-08-10T23:56:07.966Z,19.95
2022-08-10T23:58:42.254Z,20.67
